Time;durP1;ratioP1;P1;durP2;ratioP2;P2;SDS_P1;SDS_P2;PMS_P1;PMS_P2;Temp;Humidity;BMP_temperature;BMP_pressure;BME280_temperature;BME280_humidity;BME280_pressure;Samples;Min_cycle;Max_cycle;Signal;HPM_P1;HPM_P2
2023/02/03 00:02:12;;;;;;;13.23;3.40;;;7.30;99.90;;;;;;6179373;28;20058;-81
2023/02/03 00:05:18;;;;;;;5.68;3.05;;;7.30;99.90;;;;;;6189012;28;20054;-81
2023/02/03 00:08:21;;;;;;;6.40;2.30;;;7.30;99.90;;;;;;6182355;28;20520;-80
2023/02/03 00:11:26;;;;;;;6.63;2.80;;;7.40;99.90;;;;;;6178882;28;20074;-81
2023/02/03 00:14:42;;;;;;;8.68;3.03;;;7.40;99.90;;;;;;6177167;28;20147;-81
2023/02/03 00:18:05;;;;;;;5.40;2.92;;;7.40;99.90;;;;;;6177779;28;20061;-81
2023/02/03 00:21:07;;;;;;;7.90;2.72;;;7.40;99.90;;;;;;6176686;28;20050;-81
2023/02/03 00:24:17;;;;;;;3.33;2.78;;;7.40;99.90;;;;;;6165104;28;20066;-82
2023/02/03 00:27:20;;;;;;;5.82;2.40;;;7.40;99.90;;;;;;6175740;28;20105;-81
2023/02/03 00:30:22;;;;;;;4.47;2.00;;;7.40;99.90;;;;;;6175591;28;20047;-81
2023/02/03 00:33:24;;;;;;;4.70;2.35;;;7.40;99.90;;;;;;6178467;28;20065;-82
2023/02/03 00:36:26;;;;;;;5.70;2.90;;;7.50;99.90;;;;;;6177910;28;20054;-81
2023/02/03 00:39:28;;;;;;;7.95;3.15;;;7.50;99.90;;;;;;6191375;28;20437;-80
2023/02/03 00:42:31;;;;;;;4.50;2.28;;;7.50;99.90;;;;;;6188805;28;20046;-83
2023/02/03 00:45:32;;;;;;;3.65;2.35;;;7.50;99.90;;;;;;6188586;28;20430;-81
2023/02/03 00:48:34;;;;;;;3.20;2.63;;;7.60;99.90;;;;;;6185453;28;20047;-81
2023/02/03 00:51:36;;;;;;;9.50;3.00;;;7.60;99.90;;;;;;6187043;28;20454;-82
2023/02/03 00:54:37;;;;;;;5.57;2.58;;;7.60;99.90;;;;;;6186449;28;20054;-82
2023/02/03 00:57:40;;;;;;;3.42;2.50;;;7.60;99.90;;;;;;6186171;28;20061;-80
2023/02/03 01:00:42;;;;;;;3.40;2.13;;;7.60;99.90;;;;;;6186448;28;20526;-82
2023/02/03 01:03:44;;;;;;;11.82;2.28;;;7.60;99.90;;;;;;6187548;28;20074;-82
2023/02/03 01:06:45;;;;;;;2.83;2.58;;;7.60;99.90;;;;;;6190390;28;20059;-82
2023/02/03 01:09:47;;;;;;;4.63;2.50;;;7.60;99.90;;;;;;6190500;28;20058;-81
2023/02/03 01:12:50;;;;;;;2.85;2.45;;;7.60;99.90;;;;;;6188950;28;20054;-82
2023/02/03 01:15:52;;;;;;;9.90;2.53;;;7.70;99.90;;;;;;6190851;28;20057;-82
2023/02/03 01:18:55;;;;;;;6.20;2.45;;;7.70;99.90;;;;;;6213217;28;20046;-82
2023/02/03 01:21:57;;;;;;;3.67;3.35;;;7.60;99.90;;;;;;6213419;28;20061;-81
2023/02/03 01:24:58;;;;;;;5.75;2.38;;;7.60;99.90;;;;;;6215566;28;20054;-82
2023/02/03 01:28:01;;;;;;;2.72;1.85;;;7.60;99.90;;;;;;6213438;28;20094;-82
2023/02/03 01:31:11;;;;;;;3.08;1.98;;;7.50;99.90;;;;;;6214710;28;20050;-81
2023/02/03 01:34:15;;;;;;;3.85;2.35;;;7.50;99.90;;;;;;6215680;28;20046;-82
2023/02/03 01:37:16;;;;;;;6.35;1.85;;;7.50;99.90;;;;;;6211017;28;20060;-83
2023/02/03 01:40:19;;;;;;;7.35;2.47;;;7.50;99.90;;;;;;6211501;28;20512;-82
2023/02/03 01:43:34;;;;;;;3.00;2.22;;;7.50;99.90;;;;;;6211916;28;20046;-82
2023/02/03 01:46:38;;;;;;;7.18;2.65;;;7.40;99.90;;;;;;6194312;28;20047;-82
2023/02/03 01:49:42;;;;;;;2.55;2.20;;;7.50;99.90;;;;;;6188012;28;20050;-82
2023/02/03 01:52:47;;;;;;;6.68;3.00;;;7.50;99.90;;;;;;6190850;28;20082;-82
2023/02/03 01:55:50;;;;;;;4.70;2.28;;;7.50;99.90;;;;;;6190868;28;20058;-82
2023/02/03 01:58:53;;;;;;;3.47;2.15;;;7.50;99.90;;;;;;6189337;28;20503;-81
2023/02/03 02:01:56;;;;;;;3.90;2.10;;;7.50;99.90;;;;;;6187890;28;20499;-82
2023/02/03 02:05:04;;;;;;;3.92;1.75;;;7.50;99.90;;;;;;6187556;28;20507;-81
2023/02/03 02:08:07;;;;;;;2.33;2.08;;;7.50;99.90;;;;;;6182377;28;20057;-81
2023/02/03 02:11:09;;;;;;;4.75;1.70;;;7.40;99.90;;;;;;6184392;28;20050;-82
2023/02/03 02:14:12;;;;;;;6.38;2.42;;;7.40;99.90;;;;;;6184990;28;20042;-82
2023/02/03 02:17:28;;;;;;;4.25;2.97;;;7.30;99.90;;;;;;6185175;28;20051;-80
2023/02/03 02:20:55;;;;;;;5.70;2.17;;;7.30;99.90;;;;;;6179952;28;20047;-80
2023/02/03 02:24:34;;;;;;;3.00;2.47;;;7.30;99.90;;;;;;6184026;28;20054;-82
2023/02/03 02:28:11;;;;;;;4.28;1.92;;;7.30;99.90;;;;;;6182853;28;20046;-80
2023/02/03 02:31:41;;;;;;;3.03;2.38;;;7.30;99.90;;;;;;6184016;28;20061;-81
2023/02/03 02:34:58;;;;;;;2.50;1.90;;;7.30;99.90;;;;;;6180859;28;20053;-82
2023/02/03 02:38:24;;;;;;;3.17;2.58;;;7.30;99.90;;;;;;6171973;28;20054;-81
2023/02/03 02:41:31;;;;;;;2.28;2.08;;;7.30;99.90;;;;;;6191165;28;20058;-81
2023/02/03 02:44:37;;;;;;;5.70;2.47;;;7.30;99.90;;;;;;6180081;28;20054;-81
2023/02/03 02:47:39;;;;;;;2.17;1.70;;;7.30;99.90;;;;;;6179376;28;20058;-82
2023/02/03 02:50:45;;;;;;;3.65;1.88;;;7.30;99.90;;;;;;6180537;28;20144;-80
2023/02/03 02:53:51;;;;;;;3.40;1.83;;;7.30;99.90;;;;;;6183618;28;20051;-82
2023/02/03 02:56:56;;;;;;;4.60;1.92;;;7.40;99.90;;;;;;6187940;28;20080;-82
2023/02/03 02:59:58;;;;;;;3.15;2.38;;;7.30;99.90;;;;;;6188148;28;20051;-82
2023/02/03 03:03:11;;;;;;;4.93;3.88;;;7.40;99.90;;;;;;6187769;28;20061;-82
2023/02/03 03:06:19;;;;;;;5.03;1.98;;;7.30;99.90;;;;;;6184290;28;20061;-82
2023/02/03 03:09:23;;;;;;;6.32;2.25;;;7.30;99.90;;;;;;6187567;28;20410;-82
2023/02/03 03:12:33;;;;;;;2.67;1.77;;;7.30;99.90;;;;;;6206156;28;20517;-82
2023/02/03 03:15:38;;;;;;;5.30;2.05;;;7.30;99.90;;;;;;6206150;28;20054;-82
2023/02/03 03:18:43;;;;;;;3.17;2.17;;;7.30;99.90;;;;;;6206207;28;20130;-82
2023/02/03 03:21:52;;;;;;;2.10;1.60;;;7.30;99.90;;;;;;6205894;28;20056;-82
2023/02/03 03:25:00;;;;;;;4.30;3.35;;;7.30;99.90;;;;;;6205846;28;20050;-82
2023/02/03 03:28:02;;;;;;;;;;;7.30;99.90;;;;;;6205854;28;20046;-82
2023/02/03 03:31:04;;;;;;;3.00;1.90;;;7.30;99.90;;;;;;6206464;28;19922;-82
2023/02/03 03:34:08;;;;;;;3.50;1.73;;;7.30;99.90;;;;;;6206954;28;20049;-81
2023/02/03 03:37:18;;;;;;;2.63;1.95;;;7.30;99.90;;;;;;6208383;28;20055;-82
2023/02/03 03:40:26;;;;;;;4.47;2.00;;;7.30;99.90;;;;;;6204974;28;20498;-82
2023/02/03 03:43:31;;;;;;;3.67;1.95;;;7.30;99.90;;;;;;6204115;28;20057;-81
2023/02/03 03:46:38;;;;;;;4.40;3.67;;;7.30;99.90;;;;;;6205113;28;20050;-81
2023/02/03 03:49:43;;;;;;;1.93;1.57;;;7.30;99.90;;;;;;6205048;28;20077;-81
2023/02/03 03:52:49;;;;;;;4.07;2.10;;;7.30;99.90;;;;;;6206015;28;20196;-81
2023/02/03 03:55:53;;;;;;;1.30;1.20;;;7.40;99.90;;;;;;6205374;28;20049;-81
2023/02/03 03:58:57;;;;;;;6.60;1.90;;;7.40;99.90;;;;;;6206509;28;20055;-81
2023/02/03 04:02:03;;;;;;;1.70;1.55;;;7.40;99.90;;;;;;6204427;28;20050;-81
2023/02/03 04:05:05;;;;;;;1.60;1.02;;;7.40;99.90;;;;;;6205247;28;20772;-82
2023/02/03 04:08:08;;;;;;;1.77;1.67;;;7.40;99.90;;;;;;6186686;28;20430;-81
2023/02/03 04:11:59;;;;;;;9.25;2.85;;;7.40;99.90;;;;;;6180184;28;20103;-81
2023/02/03 04:14:34;;;;;;;3.40;1.33;;;7.50;99.90;;;;;;6181853;28;20058;-81
2023/02/03 04:17:36;;;;;;;1.48;1.17;;;7.40;99.90;;;;;;6182875;28;20047;-81
2023/02/03 04:20:37;;;;;;;1.65;1.40;;;7.40;99.90;;;;;;6183300;28;20043;-81
2023/02/03 04:23:40;;;;;;;1.88;1.50;;;7.40;99.90;;;;;;6183264;28;20066;-82
2023/02/03 04:26:42;;;;;;;4.13;1.20;;;7.40;99.90;;;;;;6181629;28;20376;-81
2023/02/03 04:29:46;;;;;;;1.67;1.55;;;7.30;99.90;;;;;;6182376;28;20054;-81
2023/02/03 04:32:48;;;;;;;2.53;1.35;;;7.30;99.90;;;;;;6183690;28;20046;-81
2023/02/03 04:35:49;;;;;;;2.53;1.85;;;7.30;99.90;;;;;;6189377;28;20053;-81
2023/02/03 04:38:52;;;;;;;2.40;1.63;;;7.30;99.90;;;;;;6191690;28;20053;-80
2023/02/03 04:41:54;;;;;;;6.55;1.30;;;7.20;99.90;;;;;;6191767;28;20062;-80
2023/02/03 04:44:59;;;;;;;5.28;2.10;;;7.20;99.90;;;;;;6185218;28;20054;-80
2023/02/03 04:48:03;;;;;;;2.60;1.10;;;7.20;99.90;;;;;;6181259;28;20466;-81
2023/02/03 04:51:07;;;;;;;3.53;2.13;;;7.20;99.90;;;;;;6179220;28;20050;-81
2023/02/03 04:54:10;;;;;;;4.10;1.58;;;7.20;99.90;;;;;;6179336;28;20054;-81
2023/02/03 04:57:13;;;;;;;3.63;1.67;;;7.20;99.90;;;;;;6179207;28;20051;-81
2023/02/03 05:00:16;;;;;;;2.00;1.63;;;7.20;99.90;;;;;;6178717;28;20070;-82
2023/02/03 05:03:18;;;;;;;2.05;1.45;;;7.20;99.90;;;;;;6178180;28;20054;-81
2023/02/03 05:06:24;;;;;;;2.72;1.83;;;7.20;99.90;;;;;;6176044;28;20065;-81
2023/02/03 05:09:27;;;;;;;2.17;1.50;;;7.20;99.90;;;;;;6200328;28;20051;-81
2023/02/03 05:12:29;;;;;;;2.55;1.90;;;7.30;99.90;;;;;;6202064;28;20054;-81
2023/02/03 05:15:30;;;;;;;1.90;1.50;;;7.30;99.90;;;;;;6202871;28;20054;-81
2023/02/03 05:18:32;;;;;;;5.10;2.33;;;7.30;99.90;;;;;;6202711;28;20051;-81
2023/02/03 05:21:34;;;;;;;2.92;2.15;;;7.30;99.90;;;;;;6203168;28;20046;-82
2023/02/03 05:24:37;;;;;;;3.13;1.70;;;7.40;99.90;;;;;;6202058;28;20065;-82
2023/02/03 05:27:39;;;;;;;1.92;1.50;;;7.50;99.90;;;;;;6203728;28;20050;-82
2023/02/03 05:30:41;;;;;;;2.60;1.08;;;7.50;99.90;;;;;;6203389;28;20043;-82
2023/02/03 05:33:42;;;;;;;3.80;1.52;;;7.50;99.90;;;;;;6203491;28;20566;-82
2023/02/03 05:36:44;;;;;;;1.23;1.02;;;7.50;99.90;;;;;;6203402;28;20042;-82
2023/02/03 05:39:48;;;;;;;2.67;1.60;;;7.50;99.90;;;;;;6202414;28;20054;-82
2023/02/03 05:42:49;;;;;;;6.00;1.45;;;7.50;99.90;;;;;;6202088;28;20054;-81
2023/02/03 05:45:51;;;;;;;2.60;1.70;;;7.50;99.90;;;;;;6203779;28;20069;-81
2023/02/03 05:48:53;;;;;;;1.95;1.50;;;7.50;99.90;;;;;;6204029;28;20054;-81
2023/02/03 05:51:56;;;;;;;3.35;1.70;;;7.50;99.90;;;;;;6207445;28;20049;-82
2023/02/03 05:54:59;;;;;;;3.90;1.65;;;7.50;99.90;;;;;;6207921;28;20058;-82
2023/02/03 05:58:06;;;;;;;5.30;1.80;;;7.50;99.90;;;;;;6207586;28;20134;-82
2023/02/03 06:01:10;;;;;;;3.78;1.33;;;7.60;99.90;;;;;;6210479;28;20046;-82
2023/02/03 06:04:12;;;;;;;5.50;1.70;;;7.50;99.90;;;;;;6210053;28;20527;-82
2023/02/03 06:07:14;;;;;;;4.28;1.60;;;7.50;99.90;;;;;;6207192;28;20502;-81
2023/02/03 06:10:18;;;;;;;4.72;2.08;;;7.50;99.90;;;;;;6206594;28;20076;-81
2023/02/03 06:13:19;;;;;;;3.58;2.17;;;7.50;99.90;;;;;;6207571;28;20061;-81
2023/02/03 06:16:23;;;;;;;1.63;1.23;;;7.50;99.90;;;;;;6200702;28;20050;-82
2023/02/03 06:19:26;;;;;;;8.90;3.03;;;7.50;99.90;;;;;;6182709;28;20051;-82
2023/02/03 06:22:28;;;;;;;4.07;1.83;;;7.40;99.90;;;;;;6182195;28;20117;-80
2023/02/03 06:31:51;;;;;;;2.45;1.50;;;7.30;99.90;;;;;;6271411;23;20053;-81
2023/02/03 06:34:53;;;;;;;4.93;1.38;;;7.30;99.90;;;;;;6230384;28;20050;-82
2023/02/03 06:37:55;;;;;;;3.50;1.80;;;7.30;99.90;;;;;;6253647;28;20060;-81
2023/02/03 06:40:56;;;;;;;4.68;1.67;;;7.20;99.90;;;;;;6255140;28;20088;-82
2023/02/03 06:43:58;;;;;;;10.65;2.35;;;7.30;99.90;;;;;;6255033;28;20513;-82
2023/02/03 06:47:01;;;;;;;4.65;1.55;;;7.20;99.90;;;;;;6255937;28;20048;-81
2023/02/03 06:50:03;;;;;;;6.00;2.58;;;7.20;99.90;;;;;;6255980;28;20124;-82
2023/02/03 06:53:05;;;;;;;4.00;2.20;;;7.20;99.90;;;;;;6256341;28;20069;-82
2023/02/03 06:56:07;;;;;;;5.50;1.80;;;7.20;99.90;;;;;;6255340;28;20052;-81
2023/02/03 06:59:09;;;;;;;4.57;1.77;;;7.20;99.90;;;;;;6254437;28;20060;-82
2023/02/03 07:02:12;;;;;;;3.13;1.67;;;7.10;99.90;;;;;;6254287;28;20048;-82
2023/02/03 07:05:14;;;;;;;6.97;2.40;;;7.10;99.90;;;;;;6256644;28;20053;-82
2023/02/03 07:08:15;;;;;;;2.42;1.70;;;7.10;99.90;;;;;;6258024;28;20051;-81
2023/02/03 07:11:17;;;;;;;7.22;2.10;;;7.00;99.90;;;;;;6253398;28;20049;-81
2023/02/03 07:14:19;;;;;;;6.43;2.25;;;7.00;99.90;;;;;;6253790;28;20053;-81
2023/02/03 07:17:22;;;;;;;7.60;2.33;;;6.90;99.90;;;;;;6253801;28;20045;-81
2023/02/03 07:20:25;;;;;;;4.80;2.70;;;7.00;99.90;;;;;;6254416;28;20052;-81
2023/02/03 07:23:26;;;;;;;6.88;2.53;;;6.90;99.90;;;;;;6256272;28;20421;-81
2023/02/03 07:26:28;;;;;;;2.78;2.20;;;6.90;99.90;;;;;;6253132;28;20048;-81
2023/02/03 07:29:30;;;;;;;3.25;1.90;;;7.00;99.90;;;;;;6253427;28;20049;-81
2023/02/03 07:32:33;;;;;;;2.95;2.40;;;6.90;99.90;;;;;;6252544;28;20053;-81
2023/02/03 07:35:35;;;;;;;9.18;2.30;;;6.90;99.90;;;;;;6253868;28;20056;-81
2023/02/03 07:38:37;;;;;;;4.32;3.38;;;6.90;99.90;;;;;;6253057;28;20509;-81
2023/02/03 07:41:39;;;;;;;6.82;2.60;;;6.90;99.90;;;;;;6255271;28;20493;-81
2023/02/03 07:44:41;;;;;;;6.93;1.98;;;7.00;99.90;;;;;;6253429;28;20060;-79
2023/02/03 07:47:44;;;;;;;3.72;2.65;;;7.00;99.90;;;;;;6254108;28;20045;-81
2023/02/03 07:50:47;;;;;;;9.05;2.60;;;7.00;99.90;;;;;;6252489;28;20053;-82
2023/02/03 07:53:49;;;;;;;5.10;2.10;;;7.00;99.90;;;;;;6253925;28;20515;-81
2023/02/03 07:56:51;;;;;;;2.63;1.65;;;7.10;99.90;;;;;;6254042;28;20045;-81
2023/02/03 07:59:53;;;;;;;2.95;2.35;;;7.10;99.90;;;;;;6254415;28;20086;-81
2023/02/03 08:02:56;;;;;;;9.40;2.35;;;7.20;99.90;;;;;;6252455;28;20073;-81
2023/02/03 08:05:58;;;;;;;4.55;2.05;;;7.20;99.90;;;;;;6252777;28;20045;-81
2023/02/03 08:09:00;;;;;;;5.63;1.85;;;7.20;99.90;;;;;;6252876;28;20050;-81
2023/02/03 08:12:02;;;;;;;3.85;2.17;;;7.30;99.90;;;;;;6273424;28;20475;-81
2023/02/03 08:15:05;;;;;;;7.60;2.58;;;7.30;99.90;;;;;;6277250;28;20044;-82
2023/02/03 08:18:08;;;;;;;4.53;2.03;;;7.30;99.90;;;;;;6278506;28;20065;-81
2023/02/03 08:21:10;;;;;;;5.15;2.47;;;7.30;99.90;;;;;;6278165;28;20127;-81
2023/02/03 08:24:13;;;;;;;5.45;2.17;;;7.40;99.90;;;;;;6277061;28;20045;-80
2023/02/03 08:44:50;;;;;;;7.50;2.92;;;7.50;99.90;;;;;;5274150;23;20051;-81
2023/02/03 08:47:52;;;;;;;2.90;2.33;;;7.50;99.90;;;;;;6237384;28;20045;-81
2023/02/03 08:50:53;;;;;;;3.55;1.55;;;7.60;99.90;;;;;;6252215;28;20046;-81
2023/02/03 08:53:55;;;;;;;3.67;2.65;;;7.50;99.90;;;;;;6253020;28;20057;-81
2023/02/03 08:56:57;;;;;;;4.72;2.63;;;7.50;99.90;;;;;;6253231;28;20057;-81
2023/02/03 09:00:00;;;;;;;6.07;2.10;;;7.50;99.90;;;;;;6251338;28;20050;-81
2023/02/03 09:03:03;;;;;;;4.32;1.70;;;7.50;99.90;;;;;;6252986;28;20053;-81
2023/02/03 09:09:15;;;;;;;3.20;2.20;;;7.50;99.90;;;;;;688549;26;21201;-82
2023/02/03 09:12:17;;;;;;;4.70;2.70;;;7.50;99.90;;;;;;6225741;28;20057;-81
2023/02/03 09:15:20;;;;;;;5.85;2.17;;;7.50;99.90;;;;;;6230365;28;20387;-81
2023/02/03 09:18:21;;;;;;;5.78;2.80;;;7.60;99.90;;;;;;6225623;28;20057;-82
2023/02/03 09:21:24;;;;;;;4.57;2.40;;;7.50;99.90;;;;;;6246792;28;20139;-83
2023/02/03 09:24:25;;;;;;;3.40;2.22;;;7.50;99.90;;;;;;6225735;28;20061;-82
2023/02/03 09:27:27;;;;;;;6.97;3.38;;;7.50;99.90;;;;;;6231117;28;20050;-80
2023/02/03 09:30:30;;;;;;;4.35;2.00;;;7.60;99.90;;;;;;6230819;28;20042;-83
2023/02/03 09:33:32;;;;;;;2.47;2.08;;;7.60;99.90;;;;;;6233343;28;20046;-83
2023/02/03 09:36:34;;;;;;;3.78;2.35;;;7.60;99.90;;;;;;6229819;28;20050;-82
2023/02/03 09:39:36;;;;;;;4.65;2.15;;;7.60;99.90;;;;;;6226190;28;20085;-81
2023/02/03 09:42:56;;;;;;;8.07;3.90;;;7.50;99.90;;;;;;6228593;28;20046;-81
2023/02/03 09:46:03;;;;;;;3.65;2.55;;;7.50;99.90;;;;;;6229333;28;20062;-81
2023/02/03 09:49:14;;;;;;;4.03;3.03;;;7.50;99.90;;;;;;6231313;28;20050;-82
2023/02/03 09:52:19;;;;;;;5.80;3.33;;;7.60;99.90;;;;;;6231074;28;20285;-82
2023/02/03 09:55:29;;;;;;;4.93;2.38;;;7.60;99.90;;;;;;6229399;28;20046;-80
2023/02/03 09:58:34;;;;;;;3.00;2.30;;;7.70;99.90;;;;;;6229764;28;20050;-80
2023/02/03 10:01:45;;;;;;;6.05;2.78;;;7.70;99.90;;;;;;6230002;28;20057;-80
2023/02/03 10:04:53;;;;;;;8.63;2.50;;;7.70;99.90;;;;;;6229787;28;20042;-80
2023/02/03 10:08:02;;;;;;;3.13;2.55;;;7.80;99.90;;;;;;6228645;28;20053;-80
2023/02/03 10:11:19;;;;;;;6.32;2.58;;;7.70;99.90;;;;;;6229651;28;20540;-81
2023/02/03 10:14:33;;;;;;;5.57;3.67;;;7.70;99.90;;;;;;6230255;28;20068;-79
2023/02/03 10:17:40;;;;;;;7.95;3.53;;;7.80;99.90;;;;;;6235172;28;20061;-81
2023/02/03 10:20:46;;;;;;;2.95;2.20;;;7.80;99.90;;;;;;6252478;28;20041;-80
2023/02/03 10:23:50;;;;;;;2.65;1.90;;;7.80;99.90;;;;;;6256860;28;20041;-79
2023/02/03 10:26:53;;;;;;;8.07;2.85;;;7.80;99.90;;;;;;6254489;28;20053;-80
2023/02/03 10:29:59;;;;;;;7.82;2.78;;;7.90;99.90;;;;;;6254837;28;20053;-80
2023/02/03 10:33:10;;;;;;;2.95;2.05;;;7.90;99.90;;;;;;6255415;28;20105;-80
2023/02/03 10:36:19;;;;;;;10.57;3.03;;;8.00;99.90;;;;;;6255952;28;20037;-80
2023/02/03 10:39:29;;;;;;;4.93;2.25;;;8.00;99.90;;;;;;6252362;28;20045;-81
2023/02/03 10:45:48;;;;;;;6.15;5.55;;;8.10;99.90;;;;;;6237906;28;20571;-80
2023/02/03 10:48:51;;;;;;;3.00;2.70;;;8.10;99.90;;;;;;6236880;28;20053;-82
2023/02/03 10:51:56;;;;;;;4.25;2.92;;;8.20;99.90;;;;;;6228002;28;20104;-81
2023/02/03 10:54:59;;;;;;;6.10;2.08;;;8.30;99.90;;;;;;6229051;28;20046;-81
2023/02/03 10:58:17;;;;;;;4.45;2.42;;;8.30;99.90;;;;;;6229332;28;20065;-81
2023/02/03 11:01:21;;;;;;;5.90;2.80;;;8.30;99.90;;;;;;6229091;28;20056;-81
2023/02/03 11:04:27;;;;;;;4.65;1.85;;;8.40;99.90;;;;;;6230621;28;20072;-82
2023/02/03 11:07:30;;;;;;;3.38;2.38;;;8.40;99.90;;;;;;6230307;28;20046;-81
2023/02/03 11:10:35;;;;;;;2.95;2.60;;;8.50;99.90;;;;;;6233094;28;20128;-81
2023/02/03 11:13:37;;;;;;;3.75;2.30;;;8.60;99.90;;;;;;6230599;28;20053;-82
2023/02/03 11:16:39;;;;;;;4.82;2.88;;;8.70;99.90;;;;;;6234074;28;20045;-82
2023/02/03 11:19:44;;;;;;;4.53;2.17;;;8.60;99.90;;;;;;6245644;28;20077;-82
2023/02/03 11:22:48;;;;;;;2.75;1.85;;;8.60;99.90;;;;;;6245212;28;20048;-82
2023/02/03 11:25:50;;;;;;;4.82;2.70;;;8.60;99.90;;;;;;6233005;28;20097;-82
2023/02/03 11:28:59;;;;;;;6.35;3.58;;;8.50;99.90;;;;;;6231924;28;20046;-82
2023/02/03 11:32:04;;;;;;;4.00;2.67;;;8.50;99.90;;;;;;6231109;28;20073;-82
2023/02/03 11:35:16;;;;;;;5.38;2.75;;;8.50;99.90;;;;;;6231100;28;20572;-82
2023/02/03 11:38:30;;;;;;;3.80;2.58;;;8.50;99.90;;;;;;6231783;28;20046;-82
2023/02/03 11:41:37;;;;;;;7.45;1.98;;;8.50;99.90;;;;;;6231201;28;20084;-81
2023/02/03 11:44:39;;;;;;;3.65;2.05;;;8.70;99.90;;;;;;6231575;28;20064;-83
2023/02/03 11:47:46;;;;;;;4.70;2.50;;;8.70;99.90;;;;;;6233329;28;20510;-81
2023/02/03 11:50:55;;;;;;;4.53;3.60;;;8.80;99.90;;;;;;6250903;28;20045;-81
2023/02/03 11:54:04;;;;;;;3.03;2.22;;;8.80;99.90;;;;;;6251741;28;20046;-80
2023/02/03 11:57:21;;;;;;;11.93;3.50;;;8.90;99.90;;;;;;6251126;28;20055;-80
2023/02/03 12:00:34;;;;;;;5.70;2.63;;;9.00;99.90;;;;;;6250225;28;20140;-81
2023/02/03 12:04:15;;;;;;;2.42;1.90;;;9.10;99.90;;;;;;6251901;28;20128;-83
2023/02/03 12:07:38;;;;;;;3.00;1.33;;;9.10;99.90;;;;;;6250614;28;20041;-81
2023/02/03 12:10:51;;;;;;;6.43;1.85;;;9.20;99.90;;;;;;6251055;28;20053;-81
2023/02/03 12:14:14;;;;;;;0.85;0.73;;;9.30;99.90;;;;;;6250639;28;20057;-80
2023/02/03 12:17:46;;;;;;;3.08;1.30;;;9.30;99.90;;;;;;6242938;28;20050;-81
2023/02/03 12:21:01;;;;;;;1.92;1.17;;;9.50;99.90;;;;;;6223834;28;20516;-82
2023/02/03 12:24:12;;;;;;;1.58;1.20;;;9.60;99.90;;;;;;6252185;28;20038;-80
2023/02/03 12:27:29;;;;;;;1.17;1.08;;;9.70;99.90;;;;;;6251419;28;20050;-80
2023/02/03 12:30:37;;;;;;;2.30;1.38;;;9.70;99.90;;;;;;6250391;28;20041;-81
2023/02/03 12:33:42;;;;;;;1.73;0.85;;;9.70;99.90;;;;;;6250263;28;20049;-80
2023/02/03 12:36:52;;;;;;;5.22;4.78;;;9.70;99.90;;;;;;6250334;28;20132;-81
2023/02/03 12:39:59;;;;;;;9.98;9.07;;;9.60;99.90;;;;;;6245312;28;20128;-81
2023/02/03 12:43:19;;;;;;;9.52;8.55;;;9.60;99.90;;;;;;6226422;28;20041;-80
2023/02/03 12:46:25;;;;;;;6.28;5.35;;;9.60;99.90;;;;;;6228026;28;20097;-81
2023/02/03 12:49:34;;;;;;;8.48;6.53;;;9.60;99.90;;;;;;6265083;23;20049;-82
2023/02/03 12:52:40;;;;;;;2.40;1.60;;;9.60;99.90;;;;;;6260090;28;20049;-80
2023/02/03 12:55:49;;;;;;;9.93;8.60;;;9.60;99.90;;;;;;6262184;28;20064;-82
2023/02/03 12:58:55;;;;;;;4.15;2.97;;;9.60;99.90;;;;;;6252386;28;20056;-82
2023/02/03 13:02:00;;;;;;;3.20;2.90;;;9.60;99.90;;;;;;6248598;28;20416;-81
2023/02/03 13:05:08;;;;;;;3.25;1.80;;;9.60;99.90;;;;;;6258925;28;20063;-80
2023/02/03 13:08:16;;;;;;;3.67;2.60;;;9.60;99.90;;;;;;6254522;28;20053;-81
2023/02/03 13:11:24;;;;;;;8.05;7.25;;;9.60;99.90;;;;;;6258552;28;20041;-83
2023/02/03 13:14:31;;;;;;;1.05;0.95;;;9.70;99.90;;;;;;6256346;28;20420;-80
2023/02/03 13:17:43;;;;;;;1.10;1.00;;;9.70;99.90;;;;;;6254445;28;20056;-80
2023/02/03 13:20:46;;;;;;;5.03;4.50;;;9.70;99.90;;;;;;6248557;28;20497;-83
2023/02/03 13:23:57;;;;;;;3.63;3.33;;;9.70;99.90;;;;;;6258755;28;20045;-80
2023/02/03 13:27:25;;;;;;;6.65;4.15;;;9.70;99.90;;;;;;6262130;28;20056;-81
2023/02/03 13:30:50;;;;;;;4.15;3.42;;;9.70;99.90;;;;;;6263587;28;20068;-81
2023/02/03 13:34:06;;;;;;;3.90;3.30;;;9.70;99.90;;;;;;6262328;28;20045;-82
2023/02/03 13:37:45;;;;;;;4.43;2.13;;;9.70;99.90;;;;;;6260457;28;20045;-81
2023/02/03 13:40:52;;;;;;;;;;;9.70;99.90;;;;;;6260637;28;20053;-81
2023/02/03 13:43:57;;;;;;;5.32;2.75;;;9.60;99.90;;;;;;6270497;28;19927;-80
2023/02/03 13:47:00;;;;;;;6.32;3.13;;;9.50;99.90;;;;;;6260021;28;20045;-81
2023/02/03 13:50:16;;;;;;;9.27;7.53;;;9.50;99.90;;;;;;6262120;28;20056;-81
2023/02/03 13:57:04;;;;;;;27.08;15.32;;;9.50;99.90;;;;;;6249612;28;20053;-82
2023/02/03 14:00:49;;;;;;;8.35;7.45;;;9.50;99.90;;;;;;6264427;28;20435;-82
2023/02/03 14:04:44;;;;;;;14.18;12.77;;;9.40;99.90;;;;;;6261704;28;20045;-83
2023/02/03 14:07:46;;;;;;;10.70;9.70;;;9.40;99.90;;;;;;6251353;28;20421;-83
2023/02/03 14:11:23;;;;;;;12.05;10.95;;;9.30;99.90;;;;;;6254444;28;20064;-82
2023/02/03 14:15:03;;;;;;;1.83;1.73;;;9.30;99.90;;;;;;6251982;28;20052;-83
2023/02/03 14:18:44;;;;;;;2.05;1.88;;;9.30;99.90;;;;;;6253969;28;20068;-82
2023/02/03 14:21:55;;;;;;;4.18;3.22;;;9.30;99.90;;;;;;6256334;28;20061;-81
2023/02/03 14:25:05;;;;;;;14.80;11.15;;;9.30;99.90;;;;;;6255709;28;20056;-83
2023/02/03 14:28:13;;;;;;;1.35;1.15;;;9.30;99.90;;;;;;6258258;28;20077;-80
2023/02/03 14:31:18;;;;;;;;;;;9.30;99.90;;;;;;6264907;28;20057;-82
2023/02/03 14:35:14;;;;;;;0.85;0.85;;;9.30;99.90;;;;;;6256110;28;19960;-82
2023/02/03 14:38:16;;;;;;;1.27;1.17;;;9.30;99.90;;;;;;6259240;28;20044;-82
2023/02/03 14:41:26;;;;;;;1.65;1.33;;;9.40;99.90;;;;;;6256594;28;20444;-82
2023/02/03 14:44:38;;;;;;;1.63;1.40;;;9.40;99.90;;;;;;6254352;28;20053;-81
2023/02/03 14:47:52;;;;;;;1.40;1.30;;;9.40;99.90;;;;;;6253235;28;20048;-82
2023/02/03 14:51:05;;;;;;;1.77;1.38;;;9.40;99.90;;;;;;6254043;28;20056;-82
2023/02/03 14:54:25;;;;;;;1.02;0.90;;;9.40;99.90;;;;;;6260809;28;20061;-81
2023/02/03 15:01:48;;;;;;;1.73;1.30;;;9.40;99.90;;;;;;6206016;28;20049;-83
2023/02/03 15:05:17;;;;;;;1.58;1.15;;;9.40;99.90;;;;;;6256940;28;20056;-82
2023/02/03 15:08:43;;;;;;;2.20;1.48;;;9.40;99.90;;;;;;6258030;28;20053;-82
2023/02/03 15:11:54;;;;;;;3.40;0.93;;;9.30;99.90;;;;;;6261016;28;20119;-82
2023/02/03 15:19:21;;;;;;;2.88;1.48;;;9.30;99.90;;;;;;6219263;28;20421;-83
2023/02/03 15:22:26;;;;;;;2.92;1.60;;;9.40;99.90;;;;;;6251453;28;20508;-82
2023/02/03 15:25:32;;;;;;;1.95;1.45;;;9.30;99.90;;;;;;6255822;28;20055;-82
2023/02/03 15:28:34;;;;;;;2.58;2.25;;;9.40;99.90;;;;;;6254201;28;20049;-82
2023/02/03 15:31:52;;;;;;;1.30;1.20;;;9.30;99.90;;;;;;6255502;28;20160;-82
2023/02/03 15:34:57;;;;;;;6.43;1.83;;;9.30;99.90;;;;;;6231873;28;20513;-83
2023/02/03 15:38:05;;;;;;;1.15;1.05;;;9.30;99.90;;;;;;6230218;28;20053;-81
2023/02/03 15:44:39;;;;;;;3.72;1.30;;;9.30;99.90;;;;;;6222431;28;20019;-82
2023/02/03 15:47:47;;;;;;;1.58;1.42;;;9.30;99.90;;;;;;6263825;28;20056;-82
2023/02/03 15:50:57;;;;;;;1.17;1.08;;;9.20;99.90;;;;;;6255820;28;20045;-81
2023/02/03 15:54:11;;;;;;;2.80;0.90;;;9.20;99.90;;;;;;6252571;28;20042;-81
2023/02/03 15:57:19;;;;;;;2.28;0.98;;;9.20;99.90;;;;;;6253543;28;20053;-81
2023/02/03 16:00:30;;;;;;;;;;;9.20;99.90;;;;;;6252705;28;20060;-81
2023/02/03 16:03:38;;;;;;;1.00;0.90;;;9.20;99.90;;;;;;6250475;28;19925;-81
2023/02/03 16:06:43;;;;;;;1.30;1.13;;;9.20;99.90;;;;;;6254765;28;20045;-82
2023/02/03 16:09:46;;;;;;;1.33;1.23;;;9.10;99.90;;;;;;6253262;28;20056;-82
2023/02/03 16:12:52;;;;;;;1.20;1.08;;;9.10;99.90;;;;;;6254355;28;20049;-81
2023/02/03 16:19:21;;;;;;;1.58;1.05;;;9.10;99.90;;;;;;6238319;28;20137;-79
2023/02/03 16:22:31;;;;;;;1.45;1.17;;;9.10;99.90;;;;;;6260222;28;20057;-80
2023/02/03 16:25:38;;;;;;;1.50;1.10;;;9.10;99.90;;;;;;6257235;28;20053;-79
2023/02/03 16:52:18;;;;;;;3.95;2.22;;;9.00;99.90;;;;;;6256067;28;20041;-82
2023/02/03 16:55:26;;;;;;;1.85;1.60;;;9.00;99.90;;;;;;6257507;28;20086;-81
2023/02/03 16:58:42;;;;;;;1.90;1.48;;;9.00;99.90;;;;;;6255139;28;20251;-80
2023/02/03 17:09:41;;;;;;;2.40;1.67;;;8.90;99.90;;;;;;6253017;28;20072;-83
2023/02/03 17:24:05;;;;;;;3.25;2.28;;;8.90;99.90;;;;;;6231007;28;20501;-81
2023/02/03 17:27:09;;;;;;;3.25;2.03;;;8.90;99.90;;;;;;6228096;28;20080;-79
2023/02/03 17:30:13;;;;;;;1.83;1.73;;;9.00;99.90;;;;;;6229989;28;20065;-81
2023/02/03 17:33:17;;;;;;;4.15;3.13;;;8.80;99.90;;;;;;6241076;28;20061;-79
2023/02/03 17:36:22;;;;;;;2.95;2.30;;;8.90;99.90;;;;;;6226610;28;20044;-80
2023/02/03 17:39:24;;;;;;;8.48;3.13;;;9.00;99.90;;;;;;6230692;28;20517;-80
2023/02/03 17:42:30;;;;;;;3.17;2.55;;;8.90;99.90;;;;;;6238300;28;20049;-80
2023/02/03 17:48:57;;;;;;;27.05;9.98;;;9.00;99.90;;;;;;6504667;23;20101;-79
2023/02/03 17:52:21;;;;;;;6.93;3.40;;;9.00;99.90;;;;;;6222025;28;20104;-81
2023/02/03 17:55:40;;;;;;;5.43;3.22;;;9.10;99.90;;;;;;6232741;28;20052;-80
2023/02/03 17:58:45;;;;;;;3.33;2.90;;;9.00;99.90;;;;;;6229348;28;20456;-80
2023/02/03 18:01:47;;;;;;;8.63;3.05;;;9.00;99.90;;;;;;6242523;28;20065;-80
2023/02/03 18:04:54;;;;;;;2.90;2.58;;;9.10;99.90;;;;;;6242348;28;20045;-80